AUA190Y EDDM-LOWW
Flight info
| Callsign | AUA190Y |
|---|---|
| Flight time | 0h 43m |
| Altitude | 29000 |
| Route | KIRDI3S KIRDI DCT BUWOQ DCT MASUR MASUR3W |
| Aircraft | A320/M-SDE2E3FGIJ1RWXY/LB1 |
Departure
| Time | 2026-05-06 19:05 |
|---|---|
| Airport | Munich Airport (EDDM) |
Arrival
| Time | 2026-05-06 19:49 |
|---|---|
| Airport | Vienna International Airport (LOWW) |
| Time | Latitude | Longitude | Altitude | Speed | Heading |
|---|---|---|---|---|---|
| 2026-05-06 18:25 | 48.35338 | 11.80010 | 1486 ft | 0 kts | 263° |
| 2026-05-06 18:58 | 48.35338 | 11.80013 | 1460 ft | 2 kts | 263° |
| 2026-05-06 18:59 | 48.35341 | 11.80045 | 1466 ft | 0 kts | 263° |
| 2026-05-06 18:59 | 48.35342 | 11.80059 | 1456 ft | 2 kts | 263° |
| 2026-05-06 18:59 | 48.35346 | 11.80083 | 1476 ft | 2 kts | 236° |
| 2026-05-06 18:59 | 48.35355 | 11.80104 | 1473 ft | 2 kts | 212° |
| 2026-05-06 19:00 | 48.35370 | 11.80115 | 1486 ft | 2 kts | 197° |
| 2026-05-06 19:00 | 48.35386 | 11.80116 | 1471 ft | 2 kts | 174° |
| 2026-05-06 19:00 | 48.35392 | 11.80115 | 1482 ft | 0 kts | 166° |
| 2026-05-06 19:01 | 48.35394 | 11.80114 | 1481 ft | 0 kts | 166° |
| 2026-05-06 19:01 | 48.35391 | 11.80115 | 1482 ft | 0 kts | 166° |
| 2026-05-06 19:02 | 48.35372 | 11.80122 | 1486 ft | 8 kts | 167° |
| 2026-05-06 19:02 | 48.35359 | 11.80127 | 1474 ft | 0 kts | 167° |
| 2026-05-06 19:02 | 48.35357 | 11.80128 | 1471 ft | 3 kts | 167° |
| 2026-05-06 19:02 | 48.35274 | 11.80141 | 1486 ft | 15 kts | 173° |
| 2026-05-06 19:03 | 48.35159 | 11.80161 | 1479 ft | 18 kts | 174° |
| 2026-05-06 19:03 | 48.35097 | 11.80039 | 1475 ft | 17 kts | 263° |
| 2026-05-06 19:03 | 48.35083 | 11.79852 | 1473 ft | 21 kts | 264° |
| 2026-05-06 19:03 | 48.35031 | 11.79668 | 1480 ft | 18 kts | 193° |
| 2026-05-06 19:04 | 48.34884 | 11.79688 | 1484 ft | 25 kts | 174° |
| 2026-05-06 19:04 | 48.34709 | 11.79694 | 1483 ft | 22 kts | 211° |
| 2026-05-06 19:04 | 48.34613 | 11.79518 | 1473 ft | 23 kts | 234° |
| 2026-05-06 19:04 | 48.34502 | 11.79295 | 1481 ft | 30 kts | 233° |
| 2026-05-06 19:05 | 48.34380 | 11.79069 | 1483 ft | 25 kts | 250° |
| 2026-05-06 19:05 | 48.34339 | 11.78621 | 1481 ft | 77 kts | 263° |
| 2026-05-06 19:05 | 48.34252 | 11.77486 | 1515 ft | 138 kts | 262° |
| 2026-05-06 19:05 | 48.34143 | 11.76017 | 2235 ft | 142 kts | 264° |
| 2026-05-06 19:06 | 48.34034 | 11.74536 | 3089 ft | 147 kts | 264° |
| 2026-05-06 19:06 | 48.33907 | 11.72894 | 3571 ft | 169 kts | 262° |
| 2026-05-06 19:06 | 48.33272 | 11.71273 | 4049 ft | 202 kts | 221° |
| 2026-05-06 19:06 | 48.31861 | 11.70596 | 4949 ft | 222 kts | 194° |
| 2026-05-06 19:07 | 48.30300 | 11.70462 | 5969 ft | 227 kts | 187° |
| 2026-05-06 19:07 | 48.28718 | 11.70796 | 6964 ft | 238 kts | 163° |
| 2026-05-06 19:07 | 48.27221 | 11.72145 | 7609 ft | 266 kts | 149° |
| 2026-05-06 19:07 | 48.25658 | 11.73818 | 8276 ft | 284 kts | 149° |
| 2026-05-06 19:08 | 48.24028 | 11.75529 | 9310 ft | 287 kts | 150° |
| 2026-05-06 19:08 | 48.22381 | 11.77235 | 10366 ft | 288 kts | 150° |
| 2026-05-06 19:08 | 48.20725 | 11.78960 | 11342 ft | 292 kts | 146° |
| 2026-05-06 19:08 | 48.19328 | 11.81237 | 12295 ft | 305 kts | 127° |
| 2026-05-06 19:09 | 48.18504 | 11.84212 | 13224 ft | 317 kts | 105° |
| 2026-05-06 19:09 | 48.18427 | 11.87555 | 14110 ft | 327 kts | 87° |
| 2026-05-06 19:09 | 48.18682 | 11.90954 | 14967 ft | 329 kts | 86° |
| 2026-05-06 19:09 | 48.18902 | 11.94441 | 15447 ft | 347 kts | 89° |
| 2026-05-06 19:10 | 48.19033 | 11.98134 | 15651 ft | 369 kts | 91° |
| 2026-05-06 19:10 | 48.19114 | 12.02081 | 15813 ft | 392 kts | 91° |
| 2026-05-06 19:10 | 48.19176 | 12.06279 | 16011 ft | 411 kts | 91° |
| 2026-05-06 19:10 | 48.19241 | 12.10607 | 16555 ft | 419 kts | 91° |
| 2026-05-06 19:11 | 48.19321 | 12.14994 | 17236 ft | 424 kts | 91° |
| 2026-05-06 19:11 | 48.19419 | 12.19444 | 17892 ft | 429 kts | 91° |
| 2026-05-06 19:11 | 48.19530 | 12.23980 | 18198 ft | 442 kts | 90° |
| 2026-05-06 19:11 | 48.19648 | 12.28632 | 18433 ft | 453 kts | 90° |
| 2026-05-06 19:12 | 48.19766 | 12.33383 | 18728 ft | 460 kts | 90° |
| 2026-05-06 19:12 | 48.19882 | 12.38215 | 19124 ft | 463 kts | 90° |
| 2026-05-06 19:12 | 48.19995 | 12.43053 | 19532 ft | 466 kts | 91° |
| 2026-05-06 19:12 | 48.20103 | 12.47912 | 19928 ft | 468 kts | 91° |
| 2026-05-06 19:13 | 48.20205 | 12.52803 | 20300 ft | 471 kts | 91° |
| 2026-05-06 19:13 | 48.20303 | 12.57723 | 20659 ft | 473 kts | 91° |
| 2026-05-06 19:13 | 48.20400 | 12.62660 | 21017 ft | 476 kts | 91° |
| 2026-05-06 19:13 | 48.20497 | 12.67630 | 21362 ft | 478 kts | 91° |
| 2026-05-06 19:14 | 48.20591 | 12.72623 | 21677 ft | 480 kts | 91° |
| 2026-05-06 19:14 | 48.20682 | 12.77638 | 21997 ft | 483 kts | 91° |
| 2026-05-06 19:14 | 48.20773 | 12.82681 | 22305 ft | 485 kts | 91° |
| 2026-05-06 19:14 | 48.20861 | 12.87750 | 22620 ft | 487 kts | 91° |
| 2026-05-06 19:15 | 48.20941 | 12.92843 | 22861 ft | 489 kts | 92° |
| 2026-05-06 19:15 | 48.21015 | 12.97969 | 23027 ft | 494 kts | 92° |
| 2026-05-06 19:15 | 48.21087 | 13.03126 | 23274 ft | 497 kts | 92° |
| 2026-05-06 19:15 | 48.21157 | 13.08318 | 23467 ft | 500 kts | 92° |
| 2026-05-06 19:16 | 48.21225 | 13.13534 | 23635 ft | 501 kts | 92° |
| 2026-05-06 19:16 | 48.21292 | 13.18771 | 23808 ft | 503 kts | 92° |
| 2026-05-06 19:16 | 48.21367 | 13.24021 | 23966 ft | 505 kts | 91° |
| 2026-05-06 19:16 | 48.21858 | 13.29260 | 24085 ft | 511 kts | 81° |
| 2026-05-06 19:17 | 48.22618 | 13.34467 | 24232 ft | 512 kts | 80° |
| 2026-05-06 19:17 | 48.23397 | 13.39688 | 24342 ft | 513 kts | 80° |
| 2026-05-06 19:17 | 48.24187 | 13.44926 | 24462 ft | 516 kts | 80° |
| 2026-05-06 19:17 | 48.24979 | 13.50179 | 24591 ft | 517 kts | 80° |
| 2026-05-06 19:18 | 48.25769 | 13.55448 | 24752 ft | 517 kts | 80° |
| 2026-05-06 19:18 | 48.26552 | 13.60710 | 24914 ft | 517 kts | 80° |
| 2026-05-06 19:18 | 48.27320 | 13.65913 | 25109 ft | 517 kts | 80° |
| 2026-05-06 19:18 | 48.28093 | 13.71181 | 25302 ft | 516 kts | 81° |
| 2026-05-06 19:19 | 48.28862 | 13.76445 | 25521 ft | 516 kts | 81° |
| 2026-05-06 19:19 | 48.29628 | 13.81702 | 25740 ft | 516 kts | 81° |
| 2026-05-06 19:19 | 48.30393 | 13.86962 | 25922 ft | 516 kts | 81° |
| 2026-05-06 19:19 | 48.31157 | 13.92243 | 26098 ft | 518 kts | 81° |
| 2026-05-06 19:20 | 48.31919 | 13.97533 | 26287 ft | 518 kts | 81° |
| 2026-05-06 19:20 | 48.32680 | 14.02831 | 26503 ft | 518 kts | 81° |
| 2026-05-06 19:20 | 48.33437 | 14.08113 | 26788 ft | 518 kts | 81° |
| 2026-05-06 19:20 | 48.34196 | 14.13418 | 27031 ft | 518 kts | 81° |
| 2026-05-06 19:21 | 48.34953 | 14.18713 | 27278 ft | 518 kts | 81° |
| 2026-05-06 19:21 | 48.35707 | 14.24004 | 27527 ft | 518 kts | 81° |
| 2026-05-06 19:21 | 48.36454 | 14.29290 | 27791 ft | 518 kts | 81° |
| 2026-05-06 19:21 | 48.37200 | 14.34600 | 28018 ft | 518 kts | 81° |
| 2026-05-06 19:22 | 48.37938 | 14.39851 | 28588 ft | 510 kts | 82° |
| 2026-05-06 19:22 | 48.38670 | 14.45062 | 28738 ft | 508 kts | 81° |
| 2026-05-06 19:22 | 48.39398 | 14.50258 | 28751 ft | 506 kts | 82° |
| 2026-05-06 19:23 | 48.40832 | 14.60588 | 28549 ft | 503 kts | 82° |
| 2026-05-06 19:23 | 48.41538 | 14.65724 | 27962 ft | 499 kts | 82° |
| 2026-05-06 19:23 | 48.42236 | 14.70806 | 27309 ft | 493 kts | 82° |
| 2026-05-06 19:23 | 48.42923 | 14.75831 | 26684 ft | 487 kts | 82° |
| 2026-05-06 19:24 | 48.43600 | 14.80789 | 26072 ft | 481 kts | 82° |
| 2026-05-06 19:24 | 48.44268 | 14.85690 | 25405 ft | 474 kts | 82° |
| 2026-05-06 19:24 | 48.44923 | 14.90521 | 24775 ft | 468 kts | 82° |
| 2026-05-06 19:24 | 48.45570 | 14.95303 | 24157 ft | 462 kts | 82° |
| 2026-05-06 19:25 | 48.46205 | 15.00015 | 23550 ft | 456 kts | 82° |
| 2026-05-06 19:25 | 48.46831 | 15.04679 | 22886 ft | 451 kts | 82° |
| 2026-05-06 19:25 | 48.47446 | 15.09285 | 22182 ft | 446 kts | 82° |
| 2026-05-06 19:25 | 48.48052 | 15.13846 | 21498 ft | 442 kts | 82° |
| 2026-05-06 19:26 | 48.48642 | 15.18304 | 20838 ft | 438 kts | 82° |
| 2026-05-06 19:26 | 48.49236 | 15.22789 | 20183 ft | 434 kts | 82° |
| 2026-05-06 19:26 | 48.49824 | 15.27238 | 19542 ft | 431 kts | 82° |
| 2026-05-06 19:26 | 48.50409 | 15.31657 | 18875 ft | 425 kts | 82° |
| 2026-05-06 19:27 | 48.50985 | 15.36022 | 18307 ft | 423 kts | 82° |
| 2026-05-06 19:27 | 48.51552 | 15.40335 | 17607 ft | 416 kts | 82° |
| 2026-05-06 19:27 | 48.51878 | 15.44620 | 16969 ft | 408 kts | 92° |
| 2026-05-06 19:27 | 48.51732 | 15.48851 | 16742 ft | 402 kts | 99° |
| 2026-05-06 19:28 | 48.51487 | 15.53044 | 16731 ft | 401 kts | 98° |
| 2026-05-06 19:28 | 48.51248 | 15.57243 | 16733 ft | 401 kts | 98° |
| 2026-05-06 19:28 | 48.51011 | 15.61435 | 16734 ft | 401 kts | 98° |
| 2026-05-06 19:28 | 48.50775 | 15.65623 | 16733 ft | 401 kts | 98° |
| 2026-05-06 19:29 | 48.50538 | 15.69822 | 16735 ft | 401 kts | 98° |
| 2026-05-06 19:29 | 48.50301 | 15.74009 | 16736 ft | 401 kts | 98° |
| 2026-05-06 19:29 | 48.50065 | 15.78156 | 16732 ft | 401 kts | 98° |
| 2026-05-06 19:29 | 48.49817 | 15.82403 | 16734 ft | 402 kts | 98° |
| 2026-05-06 19:30 | 48.49573 | 15.86542 | 16736 ft | 402 kts | 99° |
| 2026-05-06 19:30 | 48.49320 | 15.90739 | 16736 ft | 402 kts | 99° |
| 2026-05-06 19:30 | 48.49060 | 15.94924 | 16738 ft | 401 kts | 99° |
| 2026-05-06 19:30 | 48.48801 | 15.99108 | 16739 ft | 401 kts | 99° |
| 2026-05-06 19:31 | 48.48384 | 16.03247 | 16737 ft | 397 kts | 109° |
| 2026-05-06 19:31 | 48.47345 | 16.07050 | 16738 ft | 389 kts | 124° |
| 2026-05-06 19:31 | 48.43675 | 16.12716 | 16698 ft | 373 kts | 153° |
| 2026-05-06 19:32 | 48.41391 | 16.14384 | 16457 ft | 354 kts | 161° |
| 2026-05-06 19:32 | 48.39226 | 16.15807 | 16314 ft | 326 kts | 161° |
| 2026-05-06 19:32 | 48.37855 | 16.16718 | 16118 ft | 312 kts | 160° |
| 2026-05-06 19:32 | 48.35904 | 16.18012 | 15561 ft | 302 kts | 160° |
| 2026-05-06 19:33 | 48.33999 | 16.19281 | 14910 ft | 298 kts | 160° |
| 2026-05-06 19:33 | 48.32233 | 16.20889 | 14260 ft | 300 kts | 142° |
| 2026-05-06 19:33 | 48.30936 | 16.23355 | 13615 ft | 305 kts | 121° |
| 2026-05-06 19:33 | 48.30413 | 16.26448 | 12933 ft | 312 kts | 91° |
| 2026-05-06 19:34 | 48.30720 | 16.29683 | 12165 ft | 314 kts | 79° |
| 2026-05-06 19:34 | 48.31649 | 16.32629 | 11502 ft | 314 kts | 49° |
| 2026-05-06 19:34 | 48.33406 | 16.34481 | 10835 ft | 310 kts | 17° |
| 2026-05-06 19:34 | 48.35477 | 16.34820 | 10181 ft | 301 kts | 348° |
| 2026-05-06 19:35 | 48.37490 | 16.34057 | 9509 ft | 296 kts | 341° |
| 2026-05-06 19:35 | 48.39395 | 16.33238 | 9338 ft | 274 kts | 340° |
| 2026-05-06 19:35 | 48.41195 | 16.32468 | 8891 ft | 266 kts | 340° |
| 2026-05-06 19:35 | 48.42955 | 16.31712 | 8357 ft | 261 kts | 340° |
| 2026-05-06 19:36 | 48.44691 | 16.30968 | 7792 ft | 258 kts | 341° |
| 2026-05-06 19:36 | 48.46404 | 16.30224 | 7269 ft | 256 kts | 341° |
| 2026-05-06 19:36 | 48.48114 | 16.29507 | 6947 ft | 254 kts | 340° |
| 2026-05-06 19:36 | 48.49804 | 16.28806 | 6631 ft | 251 kts | 340° |
| 2026-05-06 19:37 | 48.51483 | 16.28123 | 6305 ft | 249 kts | 341° |
| 2026-05-06 19:37 | 48.53200 | 16.27911 | 6026 ft | 251 kts | 7° |
| 2026-05-06 19:37 | 48.54791 | 16.28982 | 5961 ft | 256 kts | 37° |
| 2026-05-06 19:37 | 48.56109 | 16.30843 | 5966 ft | 261 kts | 45° |
| 2026-05-06 19:38 | 48.57102 | 16.33059 | 5966 ft | 249 kts | 72° |
| 2026-05-06 19:38 | 48.57314 | 16.35562 | 5972 ft | 238 kts | 93° |
| 2026-05-06 19:38 | 48.57225 | 16.38050 | 5966 ft | 235 kts | 105° |
| 2026-05-06 19:38 | 48.56521 | 16.40173 | 5974 ft | 226 kts | 137° |
| 2026-05-06 19:39 | 48.55372 | 16.41792 | 5975 ft | 225 kts | 147° |
| 2026-05-06 19:39 | 48.54027 | 16.42751 | 5972 ft | 203 kts | 177° |
| 2026-05-06 19:39 | 48.52664 | 16.42897 | 5943 ft | 194 kts | 184° |
| 2026-05-06 19:39 | 48.51317 | 16.42905 | 5683 ft | 193 kts | 185° |
| 2026-05-06 19:40 | 48.49977 | 16.42887 | 5439 ft | 192 kts | 185° |
| 2026-05-06 19:40 | 48.48645 | 16.42868 | 5191 ft | 191 kts | 186° |
| 2026-05-06 19:40 | 48.47325 | 16.42859 | 5011 ft | 188 kts | 185° |
| 2026-05-06 19:40 | 48.46028 | 16.43068 | 4970 ft | 192 kts | 166° |
| 2026-05-06 19:41 | 48.44761 | 16.43744 | 4988 ft | 192 kts | 169° |
| 2026-05-06 19:41 | 48.43482 | 16.44324 | 4987 ft | 192 kts | 168° |
| 2026-05-06 19:41 | 48.42208 | 16.44913 | 4985 ft | 191 kts | 169° |
| 2026-05-06 19:41 | 48.40932 | 16.45478 | 4987 ft | 191 kts | 170° |
| 2026-05-06 19:42 | 48.39655 | 16.46029 | 5015 ft | 191 kts | 170° |
| 2026-05-06 19:42 | 48.38381 | 16.46576 | 4992 ft | 190 kts | 170° |
| 2026-05-06 19:42 | 48.37111 | 16.47120 | 4985 ft | 190 kts | 169° |
| 2026-05-06 19:42 | 48.35837 | 16.47664 | 4987 ft | 191 kts | 169° |
| 2026-05-06 19:43 | 48.34558 | 16.48211 | 4981 ft | 191 kts | 169° |
| 2026-05-06 19:43 | 48.33279 | 16.48757 | 4833 ft | 190 kts | 169° |
| 2026-05-06 19:43 | 48.32005 | 16.49301 | 4615 ft | 190 kts | 170° |
| 2026-05-06 19:43 | 48.30735 | 16.49844 | 4360 ft | 189 kts | 171° |
| 2026-05-06 19:44 | 48.29480 | 16.50379 | 4136 ft | 186 kts | 170° |
| 2026-05-06 19:44 | 48.28240 | 16.50908 | 3863 ft | 184 kts | 171° |
| 2026-05-06 19:44 | 48.27042 | 16.51420 | 3627 ft | 174 kts | 172° |
| 2026-05-06 19:44 | 48.25898 | 16.51908 | 3401 ft | 169 kts | 171° |
| 2026-05-06 19:45 | 48.24778 | 16.52384 | 3185 ft | 166 kts | 171° |
| 2026-05-06 19:45 | 48.23670 | 16.52854 | 2971 ft | 164 kts | 171° |
| 2026-05-06 19:45 | 48.22575 | 16.53320 | 2755 ft | 163 kts | 171° |
| 2026-05-06 19:45 | 48.21495 | 16.53779 | 2542 ft | 159 kts | 171° |
| 2026-05-06 19:46 | 48.20481 | 16.54213 | 2336 ft | 142 kts | 171° |
| 2026-05-06 19:46 | 48.19591 | 16.54594 | 2183 ft | 125 kts | 171° |
| 2026-05-06 19:46 | 48.18781 | 16.54937 | 2007 ft | 117 kts | 171° |
| 2026-05-06 19:46 | 48.18010 | 16.55264 | 1834 ft | 115 kts | 171° |
| 2026-05-06 19:47 | 48.17246 | 16.55587 | 1699 ft | 114 kts | 171° |
| 2026-05-06 19:47 | 48.16475 | 16.55912 | 1550 ft | 117 kts | 169° |
| 2026-05-06 19:47 | 48.15689 | 16.56247 | 1414 ft | 116 kts | 169° |
| 2026-05-06 19:47 | 48.14921 | 16.56571 | 1234 ft | 114 kts | 168° |
| 2026-05-06 19:48 | 48.14153 | 16.56894 | 1106 ft | 116 kts | 165° |
| 2026-05-06 19:48 | 48.13367 | 16.57223 | 930 ft | 118 kts | 163° |
| 2026-05-06 19:48 | 48.12589 | 16.57556 | 772 ft | 114 kts | 162° |
| 2026-05-06 19:48 | 48.11848 | 16.57871 | 626 ft | 105 kts | 163° |
| 2026-05-06 19:49 | 48.11324 | 16.58095 | 614 ft | 45 kts | 164° |
| 2026-05-06 19:49 | 48.11116 | 16.58144 | 614 ft | 22 kts | 205° |
| 2026-05-06 19:49 | 48.11074 | 16.57976 | 622 ft | 13 kts | 290° |
| 2026-05-06 19:49 | 48.11112 | 16.57855 | 610 ft | 13 kts | 296° |
| 2026-05-06 19:50 | 48.11176 | 16.57658 | 622 ft | 24 kts | 296° |
| 2026-05-06 19:50 | 48.11248 | 16.57438 | 617 ft | 23 kts | 296° |
| 2026-05-06 19:50 | 48.11316 | 16.57228 | 616 ft | 22 kts | 296° |
| 2026-05-06 19:50 | 48.11379 | 16.57037 | 620 ft | 19 kts | 296° |
| 2026-05-06 19:51 | 48.11433 | 16.56892 | 610 ft | 14 kts | 321° |
| 2026-05-06 19:51 | 48.11521 | 16.56911 | 610 ft | 13 kts | 24° |
| 2026-05-06 19:51 | 48.11594 | 16.56871 | 610 ft | 9 kts | 308° |
| 2026-05-06 19:51 | 48.11626 | 16.56866 | 610 ft | 1 kts | 17° |
| 2026-05-06 19:52 | 48.11653 | 16.56884 | 610 ft | 5 kts | 25° |
| 2026-05-06 19:52 | 48.11670 | 16.56897 | 610 ft | 1 kts | 25° |